< Typhoon 202111 2021 Season Typhoon 202113 >
Typhoon 202112 (OMAIS)
General InformationTrack Information on Google MapsDetailed Wind InformationForecast History on Google MapsAccess Analytics MapList of All Images || NewsDisaster Info.WeblogTrackbackTyphoon FrontTwiphoonTyphoon Now!Typhoon ImaginationJMA Disaster Info. XMLResourceGoogle EarthGE AnimationAtom FeedGeoJSON
Detalied Best Track (Time Zone = UTC)
Year Month Day Hour Lat. Long. Pressure (hPa) Wind (kt) Class Image Chart
2021 8 18 12 15.4 138.4 1008 0 2 Image Chart
2021 8 18 18 16.1 136.9 1006 0 2 Image Chart
2021 8 19 00 16.7 135.5 1008 0 2 Image Chart
2021 8 19 06 17.6 134.0 1006 0 2 Image Chart
2021 8 19 12 18.2 133.2 1008 0 2 Image Chart
2021 8 19 18 18.7 132.3 1006 0 2 Image Chart
2021 8 20 00 18.9 131.5 1008 0 2 Image Chart
2021 8 20 06 18.9 130.8 1008 0 2 Image Chart
2021 8 20 12 19.1 130.2 1004 35 3 Image Chart
2021 8 20 18 19.9 129.7 1002 35 3 Image Chart
2021 8 21 00 21.5 128.4 1000 40 3 Image Chart
2021 8 21 06 22.0 127.7 1000 40 3 Image Chart
2021 8 21 12 22.8 127.0 998 45 3 Image Chart
2021 8 21 18 23.4 126.5 996 45 3 Image Chart
2021 8 21 21 23.9 126.1 994 45 3 Image Chart
2021 8 22 00 24.3 125.9 994 45 3 Image Chart
2021 8 22 03 24.7 125.6 994 45 3 Image Chart
2021 8 22 06 25.1 125.3 994 45 3 Image Chart
2021 8 22 12 25.9 125.0 996 40 3 Image Chart
2021 8 22 18 27.2 124.9 996 40 3 Image Chart
2021 8 23 00 29.0 125.3 996 40 3 Image Chart
2021 8 23 06 31.3 125.7 998 35 3 Image Chart
2021 8 23 12 33.6 127.0 998 35 3 Image Chart
2021 8 23 18 36.0 129.7 998 35 3 Image Chart
2021 8 24 00 37.6 131.4 998 0 6 Image Chart
2021 8 24 06 39.0 132.3 998 0 6 Image Chart
2021 8 24 12 39.9 132.9 998 0 6 Image Chart
2021 8 24 18 40.6 134.9 998 0 6 Image Chart
2021 8 25 00 41.2 136.4 1000 0 6 Image Chart
2021 8 25 06 41.8 137.6 1002 0 6 Image Chart
2021 8 25 12 42.4 138.6 1004 0 6 Image Chart
2021 8 25 18 43.5 139.8 1004 0 6 Image Chart
2021 8 26 00 44.9 141.4 1006 0 6 Image Chart
2021 8 26 06 46.0 143.6 1004 0 6 Image Chart
2021 8 26 12 46.8 144.9 1002 0 6 Image Chart
2021 8 26 18 47.7 146.5 1002 0 6 Image Chart
2021 8 27 00 47.8 148.2 1000 0 6 Image Chart
2021 8 27 06 48.1 149.4 1000 0 6 Image Chart
2021 8 27 12 48.3 152.4 1000 0 6 Image Chart
2021 8 27 18 48.9 153.4 1000 0 6 Image Chart
2021 8 28 00 49.8 155.5 1000 0 6 Image Chart
2021 8 28 06 50.2 157.0 998 0 6 Image Chart
2021 8 28 12 50.6 157.9 998 0 6 Image Chart
2021 8 28 18 50.7 158.8 996 0 6 Image Chart
2021 8 29 00 51.0 159.6 996 0 6 Image Chart
2021 8 29 06 51.0 159.8 996 0 6 Image Chart
2021 8 29 12 51.0 161.4 998 0 6 Image Chart
2021 8 29 18 51.0 162.1 998 0 6 Image Chart
2021 8 30 00 51.0 164.7 998 0 6 Image Chart
2021 8 30 06 50.8 166.0 998 0 6 Image Chart
2021 8 30 12 50.9 169.0 1000 0 6 Image Chart
2021 8 30 18 51.3 171.6 1000 0 6 Image Chart
2021 8 31 00 51.5 174.3 1000 0 6 Image Chart
2021 8 31 06 51.7 176.7 1002 0 6 Image Chart
2021 8 31 12 51.9 179.6 1002 0 6 Image Chart
Japan Meteorological Agency Best Track Data | Correction Date : 2021-12-01
< Typhoon 202111 2021 Season Typhoon 202113 >

Help